Pongnae — 3FDZ8 — position and weather

sailwx.info

Track history (hours):
 
Tides and Currents Weather Stations Pressure Air Temp Water Temp Dewpoint Dewpoint Depression Visibility Wind Speed Wind Dir Waves Ship Positions

Pongnae

Operator: V Ships Leisure SAM

Last reported at 2015-Mar-01 13:15 UTC. Time now 2015-Mar-01 20:56 UTC.
Position N 22°12' E 114°19'.

Length 171 m; draft 6.6 m.

Type: Passenger vessel. MMSI: 353669000.

Date/timePositionNaut miles runAvg speedWind from/ knotsBaromVisibWave heightAir tempDewpointWater temp
2015-Mar-01 13:15N 22°12' E 114°19'811.2
2015-Mar-01 12:33N 22°18' E 114°13'0 0.1
2015-Mar-01 11:32N 22°18' E 114°13'0 0.0
2015-Mar-01 10:32N 22°18' E 114°13'0 0.0
2015-Mar-01 09:32N 22°18' E 114°13'0 0.0
2015-Mar-01 08:32N 22°18' E 114°13'0 0.0
2015-Mar-01 07:32N 22°18' E 114°13'0 0.0
2015-Mar-01 06:32N 22°18' E 114°13'0 0.1
2015-Mar-01 05:32N 22°18' E 114°13'0 0.0
2015-Mar-01 04:32N 22°18' E 114°13'0 0.0
2015-Mar-01 03:32N 22°18' E 114°13'0 0.0
2015-Mar-01 02:32N 22°18' E 114°13'0 0.1
2015-Mar-01 01:32N 22°18' E 114°13'0 0.1
2015-Mar-01 00:32N 22°18' E 114°13'1 0.7
2015-Feb-28 23:33N 22°17' E 114°14'8 8.2
2015-Feb-28 22:33N 22°11' E 114°20'2 0.2
2015-Feb-28 13:11N 22°12' E 114°18'710.4
2015-Feb-28 12:31N 22°18' E 114°13'0 0.1
2015-Feb-28 11:31N 22°18' E 114°13'0 0.0
2015-Feb-28 10:31N 22°18' E 114°13'0 0.0
2015-Feb-28 09:31N 22°18' E 114°13'0 0.0
2015-Feb-28 08:31N 22°18' E 114°13'0 0.0
2015-Feb-28 07:31N 22°18' E 114°13'0 0.0
2015-Feb-28 06:34N 22°18' E 114°13'0 0.0
2015-Feb-28 05:33N 22°18' E 114°13'0 0.0
2015-Feb-28 04:33N 22°18' E 114°13'0 0.0
2015-Feb-28 03:33N 22°18' E 114°13'0 0.0
2015-Feb-28 02:33N 22°18' E 114°13'0 0.0
2015-Feb-28 01:33N 22°18' E 114°13'0 0.0
2015-Feb-28 00:33N 22°18' E 114°13'2 1.8
2015-Feb-27 23:33N 22°17' E 114°15'11 8.6
2015-Feb-27 22:19N 22°07' E 114°19'6 0.6
2015-Feb-27 13:04N 22°12' E 114°18'612.2
2015-Feb-27 12:33N 22°17' E 114°14'1 0.8
2015-Feb-27 11:31N 22°18' E 114°13'0 0.0
2015-Feb-27 10:31N 22°18' E 114°13'0 0.0
2015-Feb-27 09:31N 22°18' E 114°13'0 0.0
2015-Feb-27 08:28N 22°18' E 114°13'0 0.0
2015-Feb-27 07:31N 22°18' E 114°13'0 0.0
2015-Feb-27 06:31N 22°18' E 114°13'0 0.0
2015-Feb-27 05:31N 22°18' E 114°13'0 0.0
2015-Feb-27 04:31N 22°18' E 114°13'0 0.0
2015-Feb-27 03:31N 22°18' E 114°13'0 0.0
2015-Feb-27 02:31N 22°18' E 114°13'0 0.0
2015-Feb-27 01:34N 22°18' E 114°13'0 0.0
2015-Feb-27 00:33N 22°18' E 114°13'2 2.1
2015-Feb-26 23:33N 22°17' E 114°15'8 7.0
2015-Feb-26 22:29N 22°11' E 114°20'2 0.2
2015-Feb-26 13:13N 22°12' E 114°19'811.6
2015-Feb-26 12:33N 22°18' E 114°13'0 0.1
2015-Feb-26 11:32N 22°18' E 114°13'0 0.1
2015-Feb-26 10:32N 22°18' E 114°13'0 0.1
2015-Feb-26 09:32N 22°18' E 114°13'0 0.0
2015-Feb-26 08:32N 22°18' E 114°13'0 0.0
2015-Feb-26 07:32N 22°18' E 114°13'0 0.0
2015-Feb-26 06:32N 22°18' E 114°13'0 0.1
2015-Feb-26 05:32N 22°18' E 114°13'0 0.0
2015-Feb-26 04:32N 22°18' E 114°13'0 0.0
2015-Feb-26 03:32N 22°18' E 114°13'0 0.1
2015-Feb-26 02:32N 22°18' E 114°13'0 0.1
2015-Feb-26 01:32N 22°18' E 114°13'0 0.0
2015-Feb-26 00:32N 22°18' E 114°13'0 0.4
2015-Feb-25 23:33N 22°18' E 114°13'9 8.0
2015-Feb-25 22:27N 22°11' E 114°20'2 0.2
2015-Feb-25 13:07N 22°12' E 114°18'712.4
2015-Feb-25 12:33N 22°17' E 114°14'0 0.5
2015-Feb-25 11:33N 22°18' E 114°13'0 0.0
2015-Feb-25 10:33N 22°18' E 114°13'0 0.0
2015-Feb-25 09:33N 22°18' E 114°13'0 0.0
2015-Feb-25 08:33N 22°18' E 114°13'0 0.1
2015-Feb-25 07:33N 22°18' E 114°13'0 0.1
2015-Feb-25 06:33N 22°18' E 114°13'0 0.0
2015-Feb-25 05:33N 22°18' E 114°13'0 0.1
2015-Feb-25 04:33N 22°18' E 114°13'0 0.0
2015-Feb-25 03:33N 22°18' E 114°13'0 0.0
2015-Feb-25 02:33N 22°18' E 114°13'0 0.0
2015-Feb-25 01:33N 22°18' E 114°13'0 0.0
2015-Feb-25 00:30N 22°18' E 114°13'1 1.2
2015-Feb-24 23:33N 22°17' E 114°14'8 8.1
2015-Feb-24 22:33N 22°11' E 114°20'6 4.5
2015-Feb-24 21:12N 22°06' E 114°18'0 0.0
2015-Feb-24 20:21N 22°06' E 114°18'0 0.0
2015-Feb-24 19:30N 22°06' E 114°18'7 1.1
2015-Feb-24 13:11N 22°13' E 114°18'710.3
2015-Feb-24 12:32N 22°18' E 114°13'0 0.1
2015-Feb-24 11:32N 22°18' E 114°13'0 0.0
2015-Feb-24 10:32N 22°18' E 114°13'0 0.0
2015-Feb-24 09:32N 22°18' E 114°13'0 0.0
2015-Feb-24 08:32N 22°18' E 114°13'0 0.1
2015-Feb-24 07:32N 22°18' E 114°13'0 0.0
2015-Feb-24 06:32N 22°18' E 114°13'0 0.1
2015-Feb-24 05:32N 22°18' E 114°13'0 0.1
2015-Feb-24 04:32N 22°18' E 114°13'0 0.0
2015-Feb-24 03:32N 22°18' E 114°13'0 0.0
2015-Feb-24 02:32N 22°18' E 114°13'0 0.0
2015-Feb-24 01:32N 22°18' E 114°13'0 0.0
2015-Feb-24 00:32N 22°18' E 114°13'2 1.9
2015-Feb-23 23:34N 22°17' E 114°15'7 6.6
2015-Feb-23 22:29N 22°11' E 114°20'6 5.2
2015-Feb-23 21:21N 22°06' E 114°17'6 0.8
2015-Feb-23 13:21N 22°12' E 114°19'8 9.3
2015-Feb-23 12:31N 22°18' E 114°13'0 0.1
2015-Feb-23 11:31N 22°18' E 114°13'0 0.1
2015-Feb-23 10:31N 22°18' E 114°13'0 0.0
2015-Feb-23 09:31N 22°18' E 114°13'0 0.0
2015-Feb-23 08:31N 22°18' E 114°13'0 0.0
2015-Feb-23 07:31N 22°18' E 114°13'0 0.1
2015-Feb-23 06:31N 22°18' E 114°13'0 0.0
2015-Feb-23 05:31N 22°18' E 114°13'0 0.0
2015-Feb-23 04:31N 22°18' E 114°13'0 0.0
2015-Feb-23 03:31N 22°18' E 114°13'0 0.0
2015-Feb-23 02:28N 22°18' E 114°13'0 0.0
2015-Feb-23 01:31N 22°18' E 114°13'0 0.0
2015-Feb-23 00:31N 22°18' E 114°13'2 1.6
2015-Feb-22 23:33N 22°17' E 114°15'10 8.0
2015-Feb-22 22:22N 22°09' E 114°20'3 0.3
2015-Feb-22 13:03N 22°11' E 114°19'612.4
2015-Feb-22 12:33N 22°17' E 114°15'2 2.0
2015-Feb-22 11:32N 22°18' E 114°13'0 0.1
2015-Feb-22 10:32N 22°18' E 114°13'0 0.0
2015-Feb-22 09:32N 22°18' E 114°13'0 0.0
2015-Feb-22 08:32N 22°18' E 114°13'0 0.1
2015-Feb-22 07:32N 22°18' E 114°13'0 0.0
2015-Feb-22 06:32N 22°18' E 114°13'0 0.1
2015-Feb-22 05:32N 22°18' E 114°13'0 0.0
2015-Feb-22 04:32N 22°18' E 114°13'0 0.0
2015-Feb-22 03:32N 22°18' E 114°13'0 0.0
2015-Feb-22 02:32N 22°18' E 114°13'0 0.1
2015-Feb-22 01:32N 22°18' E 114°13'0 0.0
2015-Feb-22 00:32N 22°18' E 114°13'2 2.0
2015-Feb-21 23:33N 22°17' E 114°15'8 7.0
2015-Feb-21 22:23N 22°10' E 114°20'5 1.4
2015-Feb-21 19:04N 22°06' E 114°18'0 0.0
2015-Feb-21 18:28N 22°06' E 114°18'0 0.0
2015-Feb-21 17:28N 22°06' E 114°18'6 1.5
2015-Feb-21 13:27N 22°12' E 114°19'8 8.8
2015-Feb-21 12:32N 22°18' E 114°13'0 0.1
2015-Feb-21 11:32N 22°18' E 114°13'0 0.0
2015-Feb-21 10:32N 22°18' E 114°13'0 0.1
2015-Feb-21 09:32N 22°18' E 114°13'0 0.1
2015-Feb-21 08:32N 22°18' E 114°13'0 0.0
2015-Feb-21 07:32N 22°18' E 114°13'0 0.0
2015-Feb-21 06:32N 22°18' E 114°13'0 0.0
2015-Feb-21 05:32N 22°18' E 114°13'0 0.0
2015-Feb-21 04:32N 22°18' E 114°13'0 0.1
2015-Feb-21 03:32N 22°18' E 114°13'0 0.0
2015-Feb-21 02:32N 22°18' E 114°13'0 0.0
2015-Feb-21 01:32N 22°18' E 114°13'0 0.1
2015-Feb-21 00:32N 22°18' E 114°13'1 1.1
2015-Feb-20 23:33N 22°17' E 114°14'8 7.7
2015-Feb-20 22:32N 22°11' E 114°20'7 6.9
2015-Feb-20 21:28N 22°04' E 114°17'8 1.0
2015-Feb-20 13:16N 22°12' E 114°19'811.3
2015-Feb-20 12:33N 22°18' E 114°13'0 0.1
2015-Feb-20 11:31N 22°18' E 114°13'0 0.1
2015-Feb-20 10:31N 22°18' E 114°13'0 0.0
2015-Feb-20 09:31N 22°18' E 114°13'0 0.1
2015-Feb-20 08:31N 22°18' E 114°13'0 0.1
2015-Feb-20 07:31N 22°18' E 114°13'0 0.0
2015-Feb-20 06:34N 22°18' E 114°13'0 0.1
2015-Feb-20 05:34N 22°18' E 114°13'0 0.1
2015-Feb-20 04:30N 22°18' E 114°13'0 0.0
2015-Feb-20 03:30N 22°18' E 114°13'0 0.0
2015-Feb-20 02:33N 22°18' E 114°13'0 0.0
2015-Feb-20 01:33N 22°18' E 114°13'0 0.0
2015-Feb-20 00:33N 22°18' E 114°13'1 1.1
2015-Feb-19 23:34N 22°17' E 114°14'8 7.9
2015-Feb-19 22:33N 22°11' E 114°19'7 6.6
2015-Feb-19 21:31N 22°04' E 114°17'0 0.0
2015-Feb-19 20:23N 22°04' E 114°17'0 0.0
2015-Feb-19 19:11N 22°04' E 114°17'0 0.0
2015-Feb-19 17:26N 22°04' E 114°17'0 0.0
2015-Feb-19 16:32N 22°04' E 114°17'0 0.0
2015-Feb-19 15:11N 22°04' E 114°17'0 0.1
2015-Feb-19 14:03N 22°04' E 114°17'811.0
2015-Feb-19 13:21N 22°12' E 114°19'  
Track history (hours):
 
Tides and Currents Weather Stations Pressure Air Temp Water Temp Dewpoint Dewpoint Depression Visibility Wind Speed Wind Dir Waves Ship Positions

Pongnae

Operator: V Ships Leisure SAM

Last reported at 2015-Mar-01 13:15 UTC. Time now 2015-Mar-01 20:56 UTC.
Position N 22°12' E 114°19'.

Length 171 m; draft 6.6 m.

Type: Passenger vessel. MMSI: 353669000.

Date/timePositionNaut miles runAvg speedWind from/ knotsBaromVisibWave heightAir tempDewpointWater temp
2015-Mar-01 13:15N 22°12' E 114°19'811.2
2015-Mar-01 12:33N 22°18' E 114°13'0 0.1
2015-Mar-01 11:32N 22°18' E 114°13'0 0.0
2015-Mar-01 10:32N 22°18' E 114°13'0 0.0
2015-Mar-01 09:32N 22°18' E 114°13'0 0.0
2015-Mar-01 08:32N 22°18' E 114°13'0 0.0
2015-Mar-01 07:32N 22°18' E 114°13'0 0.0
2015-Mar-01 06:32N 22°18' E 114°13'0 0.1
2015-Mar-01 05:32N 22°18' E 114°13'0 0.0
2015-Mar-01 04:32N 22°18' E 114°13'0 0.0
2015-Mar-01 03:32N 22°18' E 114°13'0 0.0
2015-Mar-01 02:32N 22°18' E 114°13'0 0.1
2015-Mar-01 01:32N 22°18' E 114°13'0 0.1
2015-Mar-01 00:32N 22°18' E 114°13'1 0.7
2015-Feb-28 23:33N 22°17' E 114°14'8 8.2
2015-Feb-28 22:33N 22°11' E 114°20'2 0.2
2015-Feb-28 13:11N 22°12' E 114°18'710.4
2015-Feb-28 12:31N 22°18' E 114°13'0 0.1
2015-Feb-28 11:31N 22°18' E 114°13'0 0.0
2015-Feb-28 10:31N 22°18' E 114°13'0 0.0
2015-Feb-28 09:31N 22°18' E 114°13'0 0.0
2015-Feb-28 08:31N 22°18' E 114°13'0 0.0
2015-Feb-28 07:31N 22°18' E 114°13'0 0.0
2015-Feb-28 06:34N 22°18' E 114°13'0 0.0
2015-Feb-28 05:33N 22°18' E 114°13'0 0.0
2015-Feb-28 04:33N 22°18' E 114°13'0 0.0
2015-Feb-28 03:33N 22°18' E 114°13'0 0.0
2015-Feb-28 02:33N 22°18' E 114°13'0 0.0
2015-Feb-28 01:33N 22°18' E 114°13'0 0.0
2015-Feb-28 00:33N 22°18' E 114°13'2 1.8
2015-Feb-27 23:33N 22°17' E 114°15'11 8.6
2015-Feb-27 22:19N 22°07' E 114°19'6 0.6
2015-Feb-27 13:04N 22°12' E 114°18'612.2
2015-Feb-27 12:33N 22°17' E 114°14'1 0.8
2015-Feb-27 11:31N 22°18' E 114°13'0 0.0
2015-Feb-27 10:31N 22°18' E 114°13'0 0.0
2015-Feb-27 09:31N 22°18' E 114°13'0 0.0
2015-Feb-27 08:28N 22°18' E 114°13'0 0.0
2015-Feb-27 07:31N 22°18' E 114°13'0 0.0
2015-Feb-27 06:31N 22°18' E 114°13'0 0.0
2015-Feb-27 05:31N 22°18' E 114°13'0 0.0
2015-Feb-27 04:31N 22°18' E 114°13'0 0.0
2015-Feb-27 03:31N 22°18' E 114°13'0 0.0
2015-Feb-27 02:31N 22°18' E 114°13'0 0.0
2015-Feb-27 01:34N 22°18' E 114°13'0 0.0
2015-Feb-27 00:33N 22°18' E 114°13'2 2.1
2015-Feb-26 23:33N 22°17' E 114°15'8 7.0
2015-Feb-26 22:29N 22°11' E 114°20'2 0.2
2015-Feb-26 13:13N 22°12' E 114°19'811.6
2015-Feb-26 12:33N 22°18' E 114°13'0 0.1
2015-Feb-26 11:32N 22°18' E 114°13'0 0.1
2015-Feb-26 10:32N 22°18' E 114°13'0 0.1
2015-Feb-26 09:32N 22°18' E 114°13'0 0.0
2015-Feb-26 08:32N 22°18' E 114°13'0 0.0
2015-Feb-26 07:32N 22°18' E 114°13'0 0.0
2015-Feb-26 06:32N 22°18' E 114°13'0 0.1
2015-Feb-26 05:32N 22°18' E 114°13'0 0.0
2015-Feb-26 04:32N 22°18' E 114°13'0 0.0
2015-Feb-26 03:32N 22°18' E 114°13'0 0.1
2015-Feb-26 02:32N 22°18' E 114°13'0 0.1
2015-Feb-26 01:32N 22°18' E 114°13'0 0.0
2015-Feb-26 00:32N 22°18' E 114°13'0 0.4
2015-Feb-25 23:33N 22°18' E 114°13'9 8.0
2015-Feb-25 22:27N 22°11' E 114°20'2 0.2
2015-Feb-25 13:07N 22°12' E 114°18'712.4
2015-Feb-25 12:33N 22°17' E 114°14'0 0.5
2015-Feb-25 11:33N 22°18' E 114°13'0 0.0
2015-Feb-25 10:33N 22°18' E 114°13'0 0.0
2015-Feb-25 09:33N 22°18' E 114°13'0 0.0
2015-Feb-25 08:33N 22°18' E 114°13'0 0.1
2015-Feb-25 07:33N 22°18' E 114°13'0 0.1
2015-Feb-25 06:33N 22°18' E 114°13'0 0.0
2015-Feb-25 05:33N 22°18' E 114°13'0 0.1
2015-Feb-25 04:33N 22°18' E 114°13'0 0.0
2015-Feb-25 03:33N 22°18' E 114°13'0 0.0
2015-Feb-25 02:33N 22°18' E 114°13'0 0.0
2015-Feb-25 01:33N 22°18' E 114°13'0 0.0
2015-Feb-25 00:30N 22°18' E 114°13'1 1.2
2015-Feb-24 23:33N 22°17' E 114°14'8 8.1
2015-Feb-24 22:33N 22°11' E 114°20'6 4.5
2015-Feb-24 21:12N 22°06' E 114°18'0 0.0
2015-Feb-24 20:21N 22°06' E 114°18'0 0.0
2015-Feb-24 19:30N 22°06' E 114°18'7 1.1
2015-Feb-24 13:11N 22°13' E 114°18'710.3
2015-Feb-24 12:32N 22°18' E 114°13'0 0.1
2015-Feb-24 11:32N 22°18' E 114°13'0 0.0
2015-Feb-24 10:32N 22°18' E 114°13'0 0.0
2015-Feb-24 09:32N 22°18' E 114°13'0 0.0
2015-Feb-24 08:32N 22°18' E 114°13'0 0.1
2015-Feb-24 07:32N 22°18' E 114°13'0 0.0
2015-Feb-24 06:32N 22°18' E 114°13'0 0.1
2015-Feb-24 05:32N 22°18' E 114°13'0 0.1
2015-Feb-24 04:32N 22°18' E 114°13'0 0.0
2015-Feb-24 03:32N 22°18' E 114°13'0 0.0
2015-Feb-24 02:32N 22°18' E 114°13'0 0.0
2015-Feb-24 01:32N 22°18' E 114°13'0 0.0
2015-Feb-24 00:32N 22°18' E 114°13'2 1.9
2015-Feb-23 23:34N 22°17' E 114°15'7 6.6
2015-Feb-23 22:29N 22°11' E 114°20'6 5.2
2015-Feb-23 21:21N 22°06' E 114°17'6 0.8
2015-Feb-23 13:21N 22°12' E 114°19'8 9.3
2015-Feb-23 12:31N 22°18' E 114°13'0 0.1
2015-Feb-23 11:31N 22°18' E 114°13'0 0.1
2015-Feb-23 10:31N 22°18' E 114°13'0 0.0
2015-Feb-23 09:31N 22°18' E 114°13'0 0.0
2015-Feb-23 08:31N 22°18' E 114°13'0 0.0
2015-Feb-23 07:31N 22°18' E 114°13'0 0.1
2015-Feb-23 06:31N 22°18' E 114°13'0 0.0
2015-Feb-23 05:31N 22°18' E 114°13'0 0.0
2015-Feb-23 04:31N 22°18' E 114°13'0 0.0
2015-Feb-23 03:31N 22°18' E 114°13'0 0.0
2015-Feb-23 02:28N 22°18' E 114°13'0 0.0
2015-Feb-23 01:31N 22°18' E 114°13'0 0.0
2015-Feb-23 00:31N 22°18' E 114°13'2 1.6
2015-Feb-22 23:33N 22°17' E 114°15'10 8.0
2015-Feb-22 22:22N 22°09' E 114°20'3 0.3
2015-Feb-22 13:03N 22°11' E 114°19'612.4
2015-Feb-22 12:33N 22°17' E 114°15'2 2.0
2015-Feb-22 11:32N 22°18' E 114°13'0 0.1
2015-Feb-22 10:32N 22°18' E 114°13'0 0.0
2015-Feb-22 09:32N 22°18' E 114°13'0 0.0
2015-Feb-22 08:32N 22°18' E 114°13'0 0.1
2015-Feb-22 07:32N 22°18' E 114°13'0 0.0
2015-Feb-22 06:32N 22°18' E 114°13'0 0.1
2015-Feb-22 05:32N 22°18' E 114°13'0 0.0
2015-Feb-22 04:32N 22°18' E 114°13'0 0.0
2015-Feb-22 03:32N 22°18' E 114°13'0 0.0
2015-Feb-22 02:32N 22°18' E 114°13'0 0.1
2015-Feb-22 01:32N 22°18' E 114°13'0 0.0
2015-Feb-22 00:32N 22°18' E 114°13'2 2.0
2015-Feb-21 23:33N 22°17' E 114°15'8 7.0
2015-Feb-21 22:23N 22°10' E 114°20'5 1.4
2015-Feb-21 19:04N 22°06' E 114°18'0 0.0
2015-Feb-21 18:28N 22°06' E 114°18'0 0.0
2015-Feb-21 17:28N 22°06' E 114°18'6 1.5
2015-Feb-21 13:27N 22°12' E 114°19'8 8.8
2015-Feb-21 12:32N 22°18' E 114°13'0 0.1
2015-Feb-21 11:32N 22°18' E 114°13'0 0.0
2015-Feb-21 10:32N 22°18' E 114°13'0 0.1
2015-Feb-21 09:32N 22°18' E 114°13'0 0.1
2015-Feb-21 08:32N 22°18' E 114°13'0 0.0
2015-Feb-21 07:32N 22°18' E 114°13'0 0.0
2015-Feb-21 06:32N 22°18' E 114°13'0 0.0
2015-Feb-21 05:32N 22°18' E 114°13'0 0.0
2015-Feb-21 04:32N 22°18' E 114°13'0 0.1
2015-Feb-21 03:32N 22°18' E 114°13'0 0.0
2015-Feb-21 02:32N 22°18' E 114°13'0 0.0
2015-Feb-21 01:32N 22°18' E 114°13'0 0.1
2015-Feb-21 00:32N 22°18' E 114°13'1 1.1
2015-Feb-20 23:33N 22°17' E 114°14'8 7.7
2015-Feb-20 22:32N 22°11' E 114°20'7 6.9
2015-Feb-20 21:28N 22°04' E 114°17'8 1.0
2015-Feb-20 13:16N 22°12' E 114°19'811.3
2015-Feb-20 12:33N 22°18' E 114°13'0 0.1
2015-Feb-20 11:31N 22°18' E 114°13'0 0.1
2015-Feb-20 10:31N 22°18' E 114°13'0 0.0
2015-Feb-20 09:31N 22°18' E 114°13'0 0.1
2015-Feb-20 08:31N 22°18' E 114°13'0 0.1
2015-Feb-20 07:31N 22°18' E 114°13'0 0.0
2015-Feb-20 06:34N 22°18' E 114°13'0 0.1
2015-Feb-20 05:34N 22°18' E 114°13'0 0.1
2015-Feb-20 04:30N 22°18' E 114°13'0 0.0
2015-Feb-20 03:30N 22°18' E 114°13'0 0.0
2015-Feb-20 02:33N 22°18' E 114°13'0 0.0
2015-Feb-20 01:33N 22°18' E 114°13'0 0.0
2015-Feb-20 00:33N 22°18' E 114°13'1 1.1
2015-Feb-19 23:34N 22°17' E 114°14'8 7.9
2015-Feb-19 22:33N 22°11' E 114°19'7 6.6
2015-Feb-19 21:31N 22°04' E 114°17'0 0.0
2015-Feb-19 20:23N 22°04' E 114°17'0 0.0
2015-Feb-19 19:11N 22°04' E 114°17'0 0.0
2015-Feb-19 17:26N 22°04' E 114°17'0 0.0
2015-Feb-19 16:32N 22°04' E 114°17'0 0.0
2015-Feb-19 15:11N 22°04' E 114°17'0 0.1
2015-Feb-19 14:03N 22°04' E 114°17'811.0
2015-Feb-19 13:21N 22°12' E 114°19'  

Dump ship's entire track history